createdAt,value
2018-12-09T00:01:46.443Z,70.53
2018-12-09T00:04:16.943Z,61.47
2018-12-09T00:06:47.465Z,57.03
2018-12-09T00:09:18.446Z,54.00
2018-12-09T00:11:49.577Z,64.40
2018-12-09T00:14:20.260Z,49.90
2018-12-09T00:16:50.816Z,55.20
2018-12-09T00:19:22.623Z,35.47
2018-12-09T00:21:53.250Z,32.07
2018-12-09T00:24:23.987Z,46.37
2018-12-09T00:26:54.603Z,45.40
2018-12-09T00:29:26.483Z,59.10
2018-12-09T00:31:57.005Z,68.37
2018-12-09T00:34:27.250Z,70.20
2018-12-09T00:36:58.010Z,60.60
2018-12-09T00:39:29.178Z,54.23
2018-12-09T00:41:59.720Z,37.10
2018-12-09T00:44:30.851Z,51.13
2018-12-09T00:47:01.392Z,44.90
2018-12-09T00:49:33.205Z,52.53
2018-12-09T00:52:03.691Z,47.60
2018-12-09T00:54:35.009Z,51.50
2018-12-09T00:57:05.612Z,48.17
2018-12-09T00:59:36.411Z,56.27
2018-12-09T01:02:13.589Z,70.37
2018-12-09T01:04:44.063Z,65.63
2018-12-09T01:07:14.930Z,46.63
2018-12-09T01:09:45.686Z,63.83
2018-12-09T01:12:16.730Z,68.03
2018-12-09T01:14:47.620Z,60.37
2018-12-09T01:17:18.324Z,74.27
2018-12-09T01:19:49.837Z,58.67
2018-12-09T01:22:20.432Z,60.97
2018-12-09T01:24:51.271Z,59.83
2018-12-09T01:27:22.163Z,53.07
2018-12-09T01:29:53.702Z,66.30
2018-12-09T01:32:25.136Z,61.00
2018-12-09T01:34:55.411Z,54.50
2018-12-09T01:37:26.517Z,50.73
2018-12-09T01:39:58.958Z,46.57
2018-12-09T01:42:30.448Z,63.00
2018-12-09T01:45:01.060Z,39.10
2018-12-09T01:47:31.678Z,40.47
2018-12-09T01:50:02.756Z,40.90
2018-12-09T01:52:33.517Z,43.83
2018-12-09T01:55:04.597Z,45.03
2018-12-09T01:57:35.543Z,31.53
2018-12-09T02:00:06.872Z,30.30
2018-12-09T02:02:37.811Z,28.97
2018-12-09T02:05:08.536Z,48.77
2018-12-09T02:07:39.761Z,66.97
2018-12-09T02:10:11.388Z,44.70
2018-12-09T02:12:42.071Z,41.10
2018-12-09T02:15:12.903Z,45.20
2018-12-09T02:17:44.241Z,47.07
2018-12-09T02:20:15.290Z,62.43
2018-12-09T02:22:45.624Z,51.17
2018-12-09T02:25:16.043Z,49.80
2018-12-09T02:27:46.339Z,64.43
2018-12-09T02:30:17.372Z,55.67
2018-12-09T02:32:47.812Z,49.60
2018-12-09T02:35:18.258Z,53.67
2018-12-09T02:37:49.036Z,58.93
2018-12-09T02:40:19.312Z,64.37
2018-12-09T02:42:49.764Z,56.17
2018-12-09T02:45:20.470Z,57.03
2018-12-09T02:47:50.986Z,56.10
2018-12-09T02:50:21.911Z,57.57
2018-12-09T02:52:52.332Z,61.43
2018-12-09T02:55:22.773Z,62.20
2018-12-09T02:57:53.291Z,56.77
2018-12-09T03:00:23.772Z,60.30
2018-12-09T03:02:54.398Z,61.77
2018-12-09T03:05:24.674Z,54.90
2018-12-09T03:07:55.453Z,54.27
2018-12-09T03:10:27.315Z,62.70
2018-12-09T03:12:58.250Z,74.67
2018-12-09T03:15:28.888Z,72.83
2018-12-09T03:17:59.530Z,47.57
2018-12-09T03:20:30.593Z,66.40
2018-12-09T03:23:01.145Z,84.93
2018-12-09T03:25:31.706Z,100.07
2018-12-09T03:28:02.032Z,75.13
2018-12-09T03:30:34.080Z,72.10
2018-12-09T03:33:04.792Z,74.43
2018-12-09T03:35:35.570Z,74.43
2018-12-09T03:38:06.284Z,66.93
2018-12-09T03:40:37.166Z,85.73
2018-12-09T03:43:07.683Z,71.73
2018-12-09T03:45:38.717Z,69.77
2018-12-09T03:48:09.433Z,68.43
2018-12-09T03:50:41.203Z,88.77
2018-12-09T03:53:11.858Z,68.40
2018-12-09T03:55:42.585Z,63.40
2018-12-09T03:58:13.668Z,60.20
2018-12-09T04:00:44.752Z,55.43
2018-12-09T04:03:15.108Z,62.20
2018-12-09T04:05:45.460Z,68.30
2018-12-09T04:08:16.159Z,87.20
2018-12-09T04:10:46.555Z,105.17
2018-12-09T04:13:17.402Z,78.50
2018-12-09T04:15:48.192Z,72.20
2018-12-09T04:18:19.086Z,76.53
2018-12-09T04:20:49.825Z,65.60
2018-12-09T04:23:20.557Z,64.40
2018-12-09T04:25:51.677Z,49.10
2018-12-09T04:28:22.620Z,56.10
2018-12-09T04:30:53.435Z,56.23
2018-12-09T04:33:24.496Z,53.53
2018-12-09T04:35:55.273Z,67.30
2018-12-09T04:38:26.639Z,65.93
2018-12-09T04:40:58.400Z,61.73
2018-12-09T04:43:29.061Z,60.67
2018-12-09T04:46:00.368Z,59.13
2018-12-09T04:48:31.147Z,59.47
2018-12-09T04:51:03.068Z,67.07
2018-12-09T04:53:34.138Z,67.57
2018-12-09T04:56:04.840Z,65.37
2018-12-09T04:58:35.829Z,67.83
2018-12-09T05:01:06.349Z,59.87
2018-12-09T05:03:37.087Z,71.23
2018-12-09T05:06:08.227Z,63.17
2018-12-09T05:08:38.597Z,64.40
2018-12-09T05:11:10.672Z,84.33
2018-12-09T05:13:42.163Z,76.40
2018-12-09T05:16:13.348Z,70.27
2018-12-09T05:18:43.804Z,63.43
2018-12-09T05:21:14.894Z,63.47
2018-12-09T05:23:45.491Z,61.10
2018-12-09T05:26:16.205Z,81.67
2018-12-09T05:28:46.736Z,76.43
2018-12-09T05:31:18.217Z,72.90
2018-12-09T05:33:49.156Z,96.20
2018-12-09T05:36:20.190Z,97.90
2018-12-09T05:38:50.785Z,74.80
2018-12-09T05:41:21.865Z,76.33
2018-12-09T05:43:52.253Z,72.10
2018-12-09T05:46:23.523Z,70.07
2018-12-09T05:48:53.778Z,99.10
2018-12-09T05:51:26.065Z,86.80
2018-12-09T05:53:56.987Z,73.07
2018-12-09T05:56:27.738Z,75.93
2018-12-09T05:58:58.323Z,97.07
2018-12-09T06:01:31.412Z,94.60
2018-12-09T06:04:02.477Z,95.90
2018-12-09T06:06:33.115Z,77.93
2018-12-09T06:09:03.631Z,103.57
2018-12-09T06:11:34.965Z,84.47
2018-12-09T06:14:06.142Z,100.40
2018-12-09T06:16:36.413Z,86.77
2018-12-09T06:19:07.316Z,133.47
2018-12-09T06:21:38.574Z,134.27
2018-12-09T06:24:09.246Z,146.43
2018-12-09T06:26:39.787Z,124.60
2018-12-09T06:29:10.755Z,110.77
2018-12-09T06:31:41.871Z,112.60
2018-12-09T06:34:12.339Z,134.03
2018-12-09T06:36:42.661Z,121.50
2018-12-09T06:39:13.188Z,144.50
2018-12-09T06:41:43.461Z,116.10
2018-12-09T06:44:14.175Z,114.30
2018-12-09T06:46:44.655Z,116.90
2018-12-09T06:49:15.431Z,131.00
2018-12-09T06:51:46.388Z,94.27
2018-12-09T06:54:16.780Z,63.10
2018-12-09T06:56:47.345Z,61.17
2018-12-09T06:59:17.867Z,70.07
2018-12-09T07:01:49.418Z,74.37
2018-12-09T07:04:20.137Z,84.70
2018-12-09T07:06:51.375Z,87.97
2018-12-09T07:09:22.056Z,94.60
2018-12-09T07:11:53.157Z,75.30
2018-12-09T07:14:24.473Z,69.40
2018-12-09T07:16:55.652Z,69.47
2018-12-09T07:19:26.723Z,65.83
2018-12-09T07:21:57.927Z,85.33
2018-12-09T07:24:28.853Z,81.63
2018-12-09T07:26:59.606Z,93.00
2018-12-09T07:29:30.771Z,88.57
2018-12-09T07:32:02.298Z,86.00
2018-12-09T07:34:33.352Z,80.90
2018-12-09T07:37:04.392Z,77.07
2018-12-09T07:39:35.032Z,64.30
2018-12-09T07:42:06.574Z,103.10
2018-12-09T07:44:37.345Z,78.60
2018-12-09T07:47:08.071Z,78.83
2018-12-09T07:49:38.908Z,97.13
2018-12-09T07:52:10.939Z,88.60
2018-12-09T07:54:41.473Z,70.33
2018-12-09T07:57:11.876Z,103.87
2018-12-09T07:59:42.961Z,93.83
2018-12-09T08:02:14.006Z,98.03
2018-12-09T08:04:45.112Z,113.30
2018-12-09T08:07:15.806Z,116.20
2018-12-09T08:09:46.538Z,91.43
2018-12-09T08:12:18.269Z,90.30
2018-12-09T08:14:49.609Z,67.63
2018-12-09T08:17:20.218Z,91.20
2018-12-09T08:19:51.771Z,74.87
2018-12-09T08:22:22.853Z,62.40
2018-12-09T08:24:53.857Z,95.53
2018-12-09T08:27:24.592Z,103.67
2018-12-09T08:29:55.552Z,116.93
2018-12-09T08:32:26.375Z,137.57
2018-12-09T08:34:57.352Z,102.03
2018-12-09T08:37:27.855Z,104.50
2018-12-09T08:39:58.804Z,90.03
2018-12-09T08:42:30.589Z,109.37
2018-12-09T08:45:01.673Z,106.73
2018-12-09T08:47:32.381Z,103.10
2018-12-09T08:50:03.312Z,84.20
2018-12-09T08:52:34.037Z,92.60
2018-12-09T08:55:04.187Z,99.83
2018-12-09T08:57:34.124Z,83.27
2018-12-09T09:00:05.376Z,105.03
2018-12-09T09:02:36.460Z,117.57
2018-12-09T09:05:07.770Z,106.03
2018-12-09T09:07:39.283Z,112.70
2018-12-09T09:10:10.735Z,126.40
2018-12-09T09:12:42.592Z,95.10
2018-12-09T09:15:13.272Z,88.60
2018-12-09T09:17:43.846Z,88.30
2018-12-09T09:20:14.259Z,80.70
2018-12-09T09:22:45.474Z,109.67
2018-12-09T09:25:15.899Z,79.40
2018-12-09T09:27:46.269Z,73.37
2018-12-09T09:30:16.637Z,66.00
2018-12-09T09:32:46.991Z,64.63
2018-12-09T09:35:17.427Z,75.93
2018-12-09T09:37:48.192Z,84.30
2018-12-09T09:40:18.537Z,57.93
2018-12-09T09:42:49.082Z,57.50
2018-12-09T09:45:19.822Z,55.50
2018-12-09T09:47:50.413Z,48.30
2018-12-09T09:50:20.910Z,57.47
2018-12-09T09:52:52.182Z,65.40
2018-12-09T09:55:22.569Z,59.60
2018-12-09T09:57:52.751Z,53.97
2018-12-09T10:00:22.895Z,58.87
2018-12-09T10:02:53.923Z,61.30
2018-12-09T10:05:24.289Z,68.43
2018-12-09T10:07:54.646Z,63.50
2018-12-09T10:10:25.299Z,68.60
2018-12-09T10:12:55.756Z,65.23
2018-12-09T10:15:26.363Z,96.10
2018-12-09T10:17:57.370Z,55.07
2018-12-09T10:20:28.145Z,59.87
2018-12-09T10:22:59.081Z,51.50
2018-12-09T10:25:29.613Z,68.10
2018-12-09T10:27:59.959Z,47.20
2018-12-09T10:30:30.464Z,51.93
2018-12-09T10:33:02.341Z,60.53
2018-12-09T10:35:33.241Z,47.83
2018-12-09T10:38:03.822Z,51.00
2018-12-09T10:40:35.425Z,49.83
2018-12-09T10:43:06.223Z,48.80
2018-12-09T10:45:36.984Z,50.50
2018-12-09T10:48:07.871Z,47.10
2018-12-09T10:50:38.283Z,50.80
2018-12-09T10:53:10.178Z,59.70
2018-12-09T10:55:40.966Z,57.63
2018-12-09T10:58:12.023Z,50.20
2018-12-09T11:00:47.642Z,51.10
2018-12-09T11:03:20.168Z,46.97
2018-12-09T11:05:51.154Z,40.10
2018-12-09T11:08:22.791Z,28.50
2018-12-09T11:10:53.989Z,40.20
2018-12-09T11:13:25.659Z,37.57
2018-12-09T11:15:56.688Z,24.83
2018-12-09T11:18:27.569Z,25.00
2018-12-09T11:20:58.181Z,24.70
2018-12-09T11:23:29.391Z,31.10
2018-12-09T11:26:00.401Z,19.60
2018-12-09T11:28:31.091Z,18.03
2018-12-09T11:31:02.348Z,18.63
2018-12-09T11:33:33.895Z,17.07
2018-12-09T11:36:04.636Z,53.73
2018-12-09T11:38:35.364Z,28.87
2018-12-09T11:41:05.722Z,22.80
2018-12-09T11:43:37.263Z,9.57
2018-12-09T11:46:08.340Z,20.00
2018-12-09T11:48:39.384Z,23.10
2018-12-09T11:51:10.099Z,7.33
2018-12-09T11:53:42.193Z,12.17
2018-12-09T11:56:12.535Z,21.57
2018-12-09T11:58:43.536Z,31.53
2018-12-09T12:01:13.977Z,20.30
2018-12-09T12:03:45.164Z,16.10
2018-12-09T12:06:16.198Z,21.63
2018-12-09T12:08:47.197Z,16.07
2018-12-09T12:11:17.973Z,18.83
2018-12-09T12:13:49.244Z,15.60
2018-12-09T12:16:20.455Z,21.97
2018-12-09T12:18:50.902Z,23.97
2018-12-09T12:21:21.296Z,17.40
2018-12-09T12:23:52.668Z,13.60
2018-12-09T12:26:23.685Z,14.00
2018-12-09T12:28:54.152Z,33.20
2018-12-09T12:31:24.554Z,14.70
2018-12-09T12:33:55.502Z,14.97
2018-12-09T12:36:25.895Z,22.80
2018-12-09T12:38:56.532Z,19.67
2018-12-09T12:41:27.187Z,17.23
2018-12-09T12:43:58.250Z,13.80
2018-12-09T12:46:28.664Z,13.10
2018-12-09T12:48:59.298Z,23.87
2018-12-09T12:51:30.256Z,32.57
2018-12-09T12:54:02.012Z,19.97
2018-12-09T12:56:32.482Z,23.43
2018-12-09T12:59:02.933Z,24.10
2018-12-09T13:01:33.788Z,25.43
2018-12-09T13:04:05.461Z,93.23
2018-12-09T13:06:36.201Z,57.27
2018-12-09T13:09:08.510Z,36.60
2018-12-09T13:11:39.284Z,39.60
2018-12-09T13:14:10.081Z,28.03
2018-12-09T13:16:41.192Z,41.40
2018-12-09T13:19:11.692Z,47.53
2018-12-09T13:21:42.039Z,57.33
2018-12-09T13:24:13.467Z,44.83
2018-12-09T13:26:44.077Z,18.73
2018-12-09T13:29:14.800Z,36.33
2018-12-09T13:36:39.440Z,84.13
2018-12-09T13:39:09.935Z,71.30
2018-12-09T13:41:40.613Z,69.73
2018-12-09T13:44:11.101Z,82.60
2018-12-09T13:46:41.546Z,79.23
2018-12-09T13:49:12.405Z,84.97
2018-12-09T13:51:42.942Z,82.27
2018-12-09T13:54:14.464Z,75.63
2018-12-09T13:56:45.066Z,89.93
2018-12-09T13:59:15.515Z,86.80
2018-12-09T14:01:46.043Z,85.23
2018-12-09T14:04:17.522Z,94.90
2018-12-09T14:06:48.253Z,133.93
2018-12-09T14:09:18.861Z,184.57
2018-12-09T14:11:49.212Z,133.43
2018-12-09T14:14:20.208Z,119.73
2018-12-09T14:16:51.443Z,131.33
2018-12-09T14:19:21.896Z,133.93
2018-12-09T14:21:52.539Z,125.73
2018-12-09T14:24:22.856Z,153.83
2018-12-09T14:26:53.373Z,139.23
2018-12-09T14:29:24.328Z,151.03
2018-12-09T14:31:55.391Z,149.00
2018-12-09T14:34:26.591Z,149.73
2018-12-09T14:36:57.284Z,125.33
2018-12-09T14:39:28.051Z,138.07
2018-12-09T14:41:58.855Z,142.03
2018-12-09T14:44:30.059Z,163.90
2018-12-09T14:47:00.456Z,182.03
2018-12-09T14:49:31.219Z,168.20
2018-12-09T14:52:01.800Z,121.13
2018-12-09T14:54:32.697Z,104.40
2018-12-09T14:57:03.271Z,112.83
2018-12-09T14:59:33.767Z,98.03
2018-12-09T15:02:04.363Z,92.13
2018-12-09T15:04:35.551Z,62.83
2018-12-09T15:07:05.936Z,60.43
2018-12-09T15:09:36.858Z,41.67
2018-12-09T15:12:08.156Z,58.63
2018-12-09T15:14:39.672Z,53.77
2018-12-09T15:17:11.002Z,75.47
2018-12-09T15:19:41.338Z,75.60
2018-12-09T15:22:11.705Z,90.47
2018-12-09T15:24:43.315Z,83.87
2018-12-09T15:27:13.847Z,74.33
2018-12-09T15:29:44.467Z,76.30
2018-12-09T15:32:15.237Z,132.87
2018-12-09T15:34:47.195Z,152.03
2018-12-09T15:37:18.007Z,140.70
2018-12-09T15:39:48.738Z,491.50
2018-12-09T15:42:19.360Z,219.80
2018-12-09T15:44:51.110Z,176.63
2018-12-09T15:47:21.562Z,205.30
2018-12-09T15:49:52.274Z,168.60
2018-12-09T15:52:22.908Z,156.13
2018-12-09T15:54:53.559Z,113.33
2018-12-09T15:57:24.147Z,78.50
2018-12-09T15:59:54.599Z,66.77
2018-12-09T16:02:25.320Z,83.07
2018-12-09T16:04:57.434Z,102.77
2018-12-09T16:07:28.042Z,213.23
2018-12-09T16:09:58.647Z,196.17
2018-12-09T16:12:29.277Z,178.93
2018-12-09T16:15:00.669Z,155.97
2018-12-09T16:17:32.279Z,139.17
2018-12-09T16:20:02.782Z,123.23
2018-12-09T16:22:33.315Z,146.40
2018-12-09T16:25:04.010Z,130.00
2018-12-09T16:27:34.483Z,159.13
2018-12-09T16:30:05.196Z,123.40
2018-12-09T16:32:35.554Z,106.97
2018-12-09T16:35:06.503Z,89.83
2018-12-09T16:37:36.952Z,85.80
2018-12-09T16:40:07.680Z,164.93
2018-12-09T16:42:38.064Z,181.23
2018-12-09T16:45:09.466Z,131.07
2018-12-09T16:47:40.364Z,142.27
2018-12-09T16:50:10.975Z,94.77
2018-12-09T16:52:41.380Z,101.80
2018-12-09T16:55:12.767Z,92.47
2018-12-09T16:57:43.240Z,106.40
2018-12-09T17:00:13.612Z,125.53
2018-12-09T17:02:44.467Z,104.80
2018-12-09T17:05:15.008Z,105.63
2018-12-09T17:07:45.421Z,205.80
2018-12-09T17:10:16.315Z,179.17
2018-12-09T17:12:46.919Z,157.23
2018-12-09T17:15:17.901Z,149.73
2018-12-09T17:17:48.641Z,135.43
2018-12-09T17:20:18.797Z,101.80
2018-12-09T17:22:49.315Z,131.97
2018-12-09T17:25:20.202Z,155.77
2018-12-09T17:27:50.463Z,129.10
2018-12-09T17:30:21.107Z,124.50
2018-12-09T17:32:51.508Z,93.10
2018-12-09T17:35:22.076Z,99.97
2018-12-09T17:37:52.594Z,66.90
2018-12-09T17:40:23.261Z,86.03
2018-12-09T17:42:54.081Z,75.20
2018-12-09T17:45:25.030Z,81.37
2018-12-09T17:47:55.519Z,82.30
2018-12-09T17:50:25.906Z,96.77
2018-12-09T17:52:56.253Z,107.23
2018-12-09T17:55:27.558Z,144.47
2018-12-09T17:57:58.203Z,87.40
2018-12-09T18:00:28.764Z,81.40
2018-12-09T18:02:59.028Z,93.33
2018-12-09T18:05:29.725Z,92.90
2018-12-09T18:08:00.119Z,126.77
2018-12-09T18:10:30.888Z,203.43
2018-12-09T18:13:01.508Z,197.37
2018-12-09T18:15:32.597Z,176.60
2018-12-09T18:18:03.443Z,212.80
2018-12-09T18:20:33.815Z,204.67
2018-12-09T18:23:04.359Z,177.40
2018-12-09T18:25:34.964Z,115.37
2018-12-09T18:28:05.289Z,174.53
2018-12-09T18:30:35.858Z,170.00
2018-12-09T18:33:06.788Z,140.97
2018-12-09T18:35:37.259Z,137.27
2018-12-09T18:38:07.496Z,125.03
2018-12-09T18:40:37.803Z,73.07
2018-12-09T18:43:08.232Z,55.90
2018-12-09T18:45:39.930Z,66.30
2018-12-09T18:48:10.374Z,83.90
2018-12-09T18:50:40.788Z,66.00
2018-12-09T18:53:11.439Z,64.67
2018-12-09T18:55:42.119Z,71.40
2018-12-09T18:58:12.976Z,80.63
2018-12-09T19:00:43.295Z,74.43
2018-12-09T19:03:13.944Z,71.00
2018-12-09T19:05:44.897Z,107.93
2018-12-09T19:08:15.530Z,85.83
2018-12-09T19:10:45.738Z,127.20
2018-12-09T19:13:16.507Z,136.80
2018-12-09T19:15:47.110Z,112.47
2018-12-09T19:18:18.063Z,121.20
2018-12-09T19:20:48.472Z,121.23
2018-12-09T19:23:19.096Z,130.13
2018-12-09T19:25:49.686Z,132.10
2018-12-09T19:28:20.282Z,124.80
2018-12-09T19:30:50.759Z,122.37
2018-12-09T19:33:21.593Z,130.47
2018-12-09T19:38:17.895Z,159.43
2018-12-09T19:40:48.170Z,100.30
2018-12-09T19:43:18.697Z,79.47
2018-12-09T19:45:49.340Z,109.17
2018-12-09T19:48:19.964Z,95.73
2018-12-09T19:50:50.608Z,92.90
2018-12-09T19:53:21.422Z,83.43
2018-12-09T19:55:52.249Z,81.67
2018-12-09T19:58:22.925Z,99.07
2018-12-09T20:00:53.595Z,109.47
2018-12-09T20:03:24.143Z,110.90
2018-12-09T20:05:55.408Z,110.17
2018-12-09T20:08:25.942Z,119.83
2018-12-09T20:10:56.674Z,119.57
2018-12-09T20:13:27.268Z,145.10
2018-12-09T20:15:58.007Z,196.10
2018-12-09T20:18:28.721Z,155.70
2018-12-09T20:20:59.276Z,139.73
2018-12-09T20:23:29.827Z,213.27
2018-12-09T20:26:01.182Z,200.57
2018-12-09T20:28:31.564Z,132.67
2018-12-09T20:31:01.937Z,143.43
2018-12-09T20:33:32.342Z,145.97
2018-12-09T20:36:03.065Z,134.43
2018-12-09T20:38:33.735Z,157.30
2018-12-09T20:41:04.115Z,152.23
2018-12-09T20:43:34.778Z,124.50
2018-12-09T20:46:06.023Z,135.00
2018-12-09T20:48:36.549Z,141.67
2018-12-09T20:51:07.148Z,110.00
2018-12-09T20:53:37.778Z,107.23
2018-12-09T20:56:09.551Z,85.00
2018-12-09T20:58:40.095Z,100.40
2018-12-09T21:01:10.629Z,106.00
2018-12-09T21:03:41.078Z,114.27
2018-12-09T21:06:12.013Z,118.10
2018-12-09T21:08:42.507Z,75.67
2018-12-09T21:11:13.146Z,102.93
2018-12-09T21:13:43.720Z,122.97
2018-12-09T21:16:14.329Z,110.23
2018-12-09T21:18:45.096Z,75.43
2018-12-09T21:21:15.543Z,53.00
2018-12-09T21:23:46.068Z,55.90
2018-12-09T21:26:17.569Z,54.70
2018-12-09T21:28:47.934Z,52.33
2018-12-09T21:31:17.967Z,35.77
2018-12-09T21:33:48.620Z,51.27
2018-12-09T21:36:19.153Z,100.37
2018-12-09T21:38:49.776Z,88.03
2018-12-09T21:41:20.416Z,83.50
2018-12-09T21:43:50.980Z,85.67
2018-12-09T21:46:22.617Z,108.53
2018-12-09T21:48:53.227Z,84.50
2018-12-09T21:51:24.140Z,82.57
2018-12-09T21:53:54.775Z,110.53
2018-12-09T21:56:26.647Z,113.00
2018-12-09T21:58:57.106Z,130.67
2018-12-09T22:01:27.696Z,115.50
2018-12-09T22:03:58.163Z,113.20
2018-12-09T22:06:29.176Z,98.83
2018-12-09T22:08:59.996Z,86.13
2018-12-09T22:11:30.397Z,106.77
2018-12-09T22:14:00.876Z,110.13
2018-12-09T22:16:32.427Z,125.50
2018-12-09T22:19:03.313Z,113.87
2018-12-09T22:21:33.971Z,132.90
2018-12-09T22:24:04.403Z,120.13
2018-12-09T22:26:35.514Z,133.03
2018-12-09T22:29:06.048Z,110.37
2018-12-09T22:31:36.683Z,122.93
2018-12-09T22:34:07.170Z,78.67
2018-12-09T22:36:38.026Z,70.03
2018-12-09T22:39:08.887Z,61.63
2018-12-09T22:41:39.731Z,83.60
2018-12-09T22:44:10.288Z,89.47
2018-12-09T22:46:42.197Z,72.03
2018-12-09T22:49:12.793Z,44.13
2018-12-09T22:51:43.519Z,38.10
2018-12-09T22:54:14.039Z,36.40
2018-12-09T22:56:44.906Z,17.97
2018-12-09T22:59:15.193Z,25.60
2018-12-09T23:01:50.547Z,26.70
2018-12-09T23:04:21.053Z,41.93
2018-12-09T23:06:54.025Z,51.77
2018-12-09T23:09:24.971Z,68.87
2018-12-09T23:11:55.667Z,63.23
2018-12-09T23:14:26.245Z,78.77
2018-12-09T23:16:58.092Z,56.23
2018-12-09T23:19:28.923Z,59.63
2018-12-09T23:21:59.680Z,68.20
2018-12-09T23:24:30.135Z,76.63
2018-12-09T23:27:01.640Z,50.73
2018-12-09T23:29:32.525Z,52.00
2018-12-09T23:32:02.834Z,52.77
2018-12-09T23:34:33.507Z,63.27
2018-12-09T23:37:03.981Z,43.90
2018-12-09T23:39:34.532Z,49.40
2018-12-09T23:42:05.189Z,55.23
2018-12-09T23:44:35.719Z,52.03
2018-12-09T23:47:07.010Z,54.70
2018-12-09T23:49:37.637Z,64.80
2018-12-09T23:52:08.083Z,69.80
2018-12-09T23:54:38.758Z,56.90
2018-12-09T23:57:09.840Z,65.73
2018-12-09T23:59:40.531Z,44.80
